This is the latest recevied weather packets stored in our database for station/object DL4MGC-10. If no packets are shown the sender has not sent any weather packets the latest 10 day(s).
| Time | Temp. | Humidity | Pressure | Rain* | Wind** | Luminosity | Snow |
|---|---|---|---|---|---|---|---|
| 1778036082 | 12.22° C | 86% | 1008.1 hPa | - | - | - | - |
| 1778035182 | 12.22° C | 84% | 1008.2 hPa | - | - | - | - |
| 1778034282 | 12.78° C | 84% | 1008.4 hPa | - | - | - | - |
| 1778033382 | 12.78° C | 85% | 1008.4 hPa | - | - | - | - |
| 1778032482 | 13.33° C | 83% | 1008.3 hPa | - | - | - | - |
| 1778031581 | 13.33° C | 83% | 1008.4 hPa | - | - | - | - |
| 1778030681 | 12.78° C | 85% | 1008.4 hPa | - | - | - | - |
| 1778029781 | 13.33° C | 84% | 1008.6 hPa | - | - | - | - |
| 1778028881 | 12.78° C | 85% | 1008.6 hPa | - | - | - | - |
| 1778027981 | 13.33° C | 84% | 1008.4 hPa | - | - | - | - |
| 1778027081 | 13.33° C | 83% | 1008.6 hPa | - | - | - | - |
| 1778026181 | 13.33° C | 84% | 1008.8 hPa | - | - | - | - |
| 1778025281 | 13.33° C | 85% | 1009 hPa | - | - | - | - |
| 1778024381 | 13.33° C | 84% | 1009 hPa | - | - | - | - |
| 1778023481 | 13.89° C | 82% | 1009.1 hPa | - | - | - | - |
| 1778022581 | 13.89° C | 82% | 1009.3 hPa | - | - | - | - |
| 1778021681 | 15° C | 79% | 1009.2 hPa | - | - | - | - |
| 1778020780 | 15° C | 79% | 1009.2 hPa | - | - | - | - |
| 1778019880 | 15.56° C | 77% | 1009.2 hPa | - | - | - | - |
| 1778018980 | 15.56° C | 77% | 1009.1 hPa | - | - | - | - |
| 1778018080 | 16.11° C | 74% | 1009 hPa | - | - | - | - |
| 1778017180 | 16.11° C | 73% | 1008.7 hPa | - | - | - | - |
| 1778016280 | 15° C | 76% | 1008.7 hPa | - | - | - | - |
| 1778015380 | 15.56° C | 75% | 1008.7 hPa | - | - | - | - |
| 1778014480 | 16.67° C | 74% | 1008.9 hPa | - | - | - | - |
* Rain since midnight (hover to see other rain measurements)
** Current wind speed in m/s (hover to see current wind gust speed)